Xin Dan Dong — BPBY — position and weather

sailwx.info

Track history (hours):
 
Tides and Currents Weather Stations Pressure Air Temp Water Temp Dewpoint Dewpoint Depression Visibility Wind Speed Wind Dir Waves Ship Positions

Xin Dan Dong

Last reported at 2017-Jun-20 17:47 UTC. Time now 2017-Jun-24 05:21 UTC.
Position N 24°01' E 118°18'.

Length 263 m; draft 11.7 m.

Type: Cargo ship. MMSI: 413153000.

Date/timePositionNaut miles runAvg speedWind from/ knotsBaromVisibWave heightAir tempDewpointWater temp
2017-Jun-20 17:47N 24°01' E 118°18'412.7
2017-Jun-20 17:29N 24°05' E 118°18'612.8
2017-Jun-20 17:00N 24°11' E 118°17'613.0
2017-Jun-20 16:31N 24°16' E 118°14'713.6
2017-Jun-20 16:00N 24°21' E 118°09'612.1
2017-Jun-20 15:31N 24°26' E 118°04'2 3.4
2017-Jun-20 14:59N 24°27' E 118°03'0 0.0
2017-Jun-20 14:29N 24°27' E 118°03'0 0.1
2017-Jun-20 13:29N 24°27' E 118°02'0 0.1
2017-Jun-20 12:56N 24°27' E 118°03'0 0.0
2017-Jun-20 12:26N 24°27' E 118°03'0 0.1
2017-Jun-20 11:50N 24°27' E 118°02'0 0.2
2017-Jun-20 11:29N 24°27' E 118°03'0 0.0
2017-Jun-20 10:56N 24°27' E 118°03'0 0.0
2017-Jun-20 10:29N 24°27' E 118°03'0 0.1
2017-Jun-20 09:53N 24°27' E 118°02'0 0.1
2017-Jun-20 09:29N 24°27' E 118°03'0 0.1
2017-Jun-20 08:59N 24°27' E 118°02'0 0.1
2017-Jun-20 08:29N 24°27' E 118°03'0 0.0
2017-Jun-20 07:59N 24°27' E 118°03'0 0.0
2017-Jun-20 07:26N 24°27' E 118°03'0 0.0
2017-Jun-20 06:50N 24°27' E 118°03'0 0.0
2017-Jun-20 06:29N 24°27' E 118°03'0 0.1
2017-Jun-20 05:44N 24°27' E 118°02'0 0.0
2017-Jun-20 05:14N 24°27' E 118°02'0 0.0
2017-Jun-20 02:32N 24°27' E 118°03'0 0.0
2017-Jun-20 02:20N 24°27' E 118°03'0 0.0
2017-Jun-20 01:59N 24°27' E 118°03'2 3.9
2017-Jun-20 01:31N 24°25' E 118°04'510.1
2017-Jun-20 01:01N 24°22' E 118°08'4 7.8
2017-Jun-20 00:30N 24°19' E 118°11'4 6.9
2017-Jun-20 00:00N 24°17' E 118°14'4 7.8
2017-Jun-19 23:28N 24°15' E 118°18'6 0.4
2017-Jun-19 07:31N 24°17' E 118°24'0 8.5
2017-Jun-19 07:30N 24°17' E 118°24'611.2
2017-Jun-19 06:57N 24°15' E 118°30'2 3.1
2017-Jun-19 06:10N 24°17' E 118°32'1 2.2
2017-Jun-19 05:53N 24°16' E 118°32'11 5.2
2017-Jun-19 03:41N 24°22' E 118°43'52112.0
2017-Jun-17 08:14N 32°05' E 123°14'611.8
2017-Jun-17 07:46N 32°11' E 123°14'  
2017-Jun-14 22:02N 35°60' E 120°13'0 0.0
2017-Jun-14 20:44N 35°60' E 120°13'  
Track history (hours):
 
Tides and Currents Weather Stations Pressure Air Temp Water Temp Dewpoint Dewpoint Depression Visibility Wind Speed Wind Dir Waves Ship Positions

Xin Dan Dong

Last reported at 2017-Jun-20 17:47 UTC. Time now 2017-Jun-24 05:21 UTC.
Position N 24°01' E 118°18'.

Length 263 m; draft 11.7 m.

Type: Cargo ship. MMSI: 413153000.

Date/timePositionNaut miles runAvg speedWind from/ knotsBaromVisibWave heightAir tempDewpointWater temp
2017-Jun-20 17:47N 24°01' E 118°18'412.7
2017-Jun-20 17:29N 24°05' E 118°18'612.8
2017-Jun-20 17:00N 24°11' E 118°17'613.0
2017-Jun-20 16:31N 24°16' E 118°14'713.6
2017-Jun-20 16:00N 24°21' E 118°09'612.1
2017-Jun-20 15:31N 24°26' E 118°04'2 3.4
2017-Jun-20 14:59N 24°27' E 118°03'0 0.0
2017-Jun-20 14:29N 24°27' E 118°03'0 0.1
2017-Jun-20 13:29N 24°27' E 118°02'0 0.1
2017-Jun-20 12:56N 24°27' E 118°03'0 0.0
2017-Jun-20 12:26N 24°27' E 118°03'0 0.1
2017-Jun-20 11:50N 24°27' E 118°02'0 0.2
2017-Jun-20 11:29N 24°27' E 118°03'0 0.0
2017-Jun-20 10:56N 24°27' E 118°03'0 0.0
2017-Jun-20 10:29N 24°27' E 118°03'0 0.1
2017-Jun-20 09:53N 24°27' E 118°02'0 0.1
2017-Jun-20 09:29N 24°27' E 118°03'0 0.1
2017-Jun-20 08:59N 24°27' E 118°02'0 0.1
2017-Jun-20 08:29N 24°27' E 118°03'0 0.0
2017-Jun-20 07:59N 24°27' E 118°03'0 0.0
2017-Jun-20 07:26N 24°27' E 118°03'0 0.0
2017-Jun-20 06:50N 24°27' E 118°03'0 0.0
2017-Jun-20 06:29N 24°27' E 118°03'0 0.1
2017-Jun-20 05:44N 24°27' E 118°02'0 0.0
2017-Jun-20 05:14N 24°27' E 118°02'0 0.0
2017-Jun-20 02:32N 24°27' E 118°03'0 0.0
2017-Jun-20 02:20N 24°27' E 118°03'0 0.0
2017-Jun-20 01:59N 24°27' E 118°03'2 3.9
2017-Jun-20 01:31N 24°25' E 118°04'510.1
2017-Jun-20 01:01N 24°22' E 118°08'4 7.8
2017-Jun-20 00:30N 24°19' E 118°11'4 6.9
2017-Jun-20 00:00N 24°17' E 118°14'4 7.8
2017-Jun-19 23:28N 24°15' E 118°18'6 0.4
2017-Jun-19 07:31N 24°17' E 118°24'0 8.5
2017-Jun-19 07:30N 24°17' E 118°24'611.2
2017-Jun-19 06:57N 24°15' E 118°30'2 3.1
2017-Jun-19 06:10N 24°17' E 118°32'1 2.2
2017-Jun-19 05:53N 24°16' E 118°32'11 5.2
2017-Jun-19 03:41N 24°22' E 118°43'52112.0
2017-Jun-17 08:14N 32°05' E 123°14'611.8
2017-Jun-17 07:46N 32°11' E 123°14'  
2017-Jun-14 22:02N 35°60' E 120°13'0 0.0
2017-Jun-14 20:44N 35°60' E 120°13'  

Dump ship's entire track history